Time;durP1;ratioP1;P1;durP2;ratioP2;P2;SDS_P1;SDS_P2;PMS_P1;PMS_P2;Temp;Humidity;BMP_temperature;BMP_pressure;BME280_temperature;BME280_humidity;BME280_pressure;Samples;Min_cycle;Max_cycle;Signal;HPM_P1;HPM_P2
2022/09/04 00:00:10;;;;;;;5.10;4.15;;;22.70;99.90;;;;;;1042974;28;20111;-71
2022/09/04 00:01:12;;;;;;;4.95;3.95;;;22.80;99.90;;;;;;1043002;28;20634;-70
2022/09/04 00:02:18;;;;;;;4.22;3.83;;;22.80;99.90;;;;;;1038495;28;20595;-70
2022/09/04 00:03:14;;;;;;;5.32;4.18;;;22.80;99.90;;;;;;1039909;28;20072;-70
2022/09/04 00:04:05;;;;;;;5.53;3.75;;;22.80;99.90;;;;;;1038805;28;20056;-71
2022/09/04 00:04:45;;;;;;;6.38;4.28;;;22.80;99.90;;;;;;1040813;28;20591;-70
2022/09/04 00:05:21;;;;;;;5.10;4.38;;;22.70;99.90;;;;;;1042782;28;20024;-70
2022/09/04 00:05:59;;;;;;;5.28;4.03;;;22.80;99.90;;;;;;1042736;28;20032;-71
2022/09/04 00:06:37;;;;;;;6.00;4.75;;;22.70;99.90;;;;;;1042730;28;20054;-71
2022/09/04 00:07:22;;;;;;;5.28;4.15;;;22.70;99.90;;;;;;1043239;28;20013;-71
2022/09/04 00:08:22;;;;;;;6.45;4.60;;;22.70;99.90;;;;;;1042964;28;20033;-71
2022/09/04 00:09:18;;;;;;;5.93;4.05;;;22.70;99.90;;;;;;1043161;28;20021;-70
2022/09/04 00:10:15;;;;;;;4.97;4.07;;;22.70;99.90;;;;;;1043075;28;20017;-70
2022/09/04 00:11:17;;;;;;;4.80;4.10;;;22.70;99.90;;;;;;1043082;28;20033;-71
2022/09/04 00:12:03;;;;;;;4.95;4.47;;;22.70;99.90;;;;;;1043166;28;20104;-71
2022/09/04 00:12:42;;;;;;;5.65;4.13;;;22.70;99.90;;;;;;1043318;28;20078;-70
2022/09/04 00:13:32;;;;;;;5.22;4.40;;;22.60;99.90;;;;;;1043092;28;20017;-70
2022/09/04 00:14:28;;;;;;;4.78;4.28;;;22.60;99.90;;;;;;1042789;28;20021;-69
2022/09/04 00:15:10;;;;;;;4.65;4.10;;;22.60;99.90;;;;;;1032297;28;20035;-70
2022/09/04 00:15:48;;;;;;;4.97;4.00;;;22.60;99.90;;;;;;1042864;28;20040;-70
2022/09/04 00:16:23;;;;;;;5.32;4.50;;;22.60;99.90;;;;;;1039751;28;20032;-69
2022/09/04 00:17:01;;;;;;;6.95;4.45;;;22.60;99.90;;;;;;1043222;28;20467;-70
2022/09/04 00:17:46;;;;;;;4.78;3.92;;;22.60;99.90;;;;;;1043110;28;20013;-70
2022/09/04 00:18:47;;;;;;;6.32;4.18;;;22.60;99.90;;;;;;1043137;28;20544;-70
2022/09/04 00:19:55;;;;;;;5.82;4.47;;;22.60;99.90;;;;;;1043045;28;20020;-68
2022/09/04 00:20:41;;;;;;;6.40;4.47;;;22.60;99.90;;;;;;1034079;28;20064;-70
2022/09/04 00:21:20;;;;;;;4.82;4.15;;;22.60;99.90;;;;;;1034518;28;20073;-71
2022/09/04 00:21:59;;;;;;;5.07;4.28;;;22.60;99.90;;;;;;1042318;28;20115;-70
2022/09/04 00:22:52;;;;;;;4.45;4.05;;;22.60;99.90;;;;;;1038534;28;20455;-71
2022/09/04 00:23:28;;;;;;;6.82;4.30;;;22.50;99.90;;;;;;1038859;28;20017;-71
2022/09/04 00:24:07;;;;;;;4.97;4.13;;;22.50;99.90;;;;;;1042738;28;20028;-71
2022/09/04 00:24:42;;;;;;;6.78;4.55;;;22.50;99.90;;;;;;1042654;28;20041;-70
2022/09/04 00:25:42;;;;;;;4.50;4.10;;;22.50;99.90;;;;;;1042651;28;20024;-70
2022/09/04 00:26:27;;;;;;;5.18;3.70;;;22.50;99.90;;;;;;1042908;28;20442;-71
2022/09/04 00:27:05;;;;;;;5.97;4.20;;;22.50;99.90;;;;;;1038373;28;20063;-70
2022/09/04 00:27:43;;;;;;;4.35;3.95;;;22.50;99.90;;;;;;1038916;28;20047;-71
2022/09/04 00:28:32;;;;;;;4.70;3.85;;;22.50;99.90;;;;;;1039163;28;20075;-71
2022/09/04 00:29:27;;;;;;;4.75;4.25;;;22.50;99.90;;;;;;1042478;28;20028;-71
2022/09/04 00:30:07;;;;;;;4.70;4.20;;;22.50;99.90;;;;;;1042228;28;20198;-70
2022/09/04 00:30:51;;;;;;;6.18;4.05;;;22.50;99.90;;;;;;1042402;28;20125;-70
2022/09/04 00:31:47;;;;;;;4.80;4.30;;;22.50;99.90;;;;;;1038362;28;20040;-71
2022/09/04 00:32:18;;;;;;;;;;;22.50;99.90;;;;;;1024322;28;20034;-70
2022/09/04 00:33:18;;;;;;;5.20;4.40;;;22.50;99.90;;;;;;1030384;28;20099;-71
2022/09/04 00:34:10;;;;;;;5.65;4.30;;;22.50;99.90;;;;;;1034777;28;20124;-71
2022/09/04 00:34:47;;;;;;;3.85;3.55;;;22.50;99.90;;;;;;1038643;28;20035;-71
2022/09/04 00:35:32;;;;;;;5.35;4.53;;;22.50;99.90;;;;;;1038921;28;20677;-71
2022/09/04 00:36:04;;;;;;;5.05;4.07;;;22.50;99.90;;;;;;1038931;28;20068;-70
2022/09/04 00:36:39;;;;;;;5.45;4.30;;;22.50;99.90;;;;;;1038797;28;20504;-71
2022/09/04 00:37:15;;;;;;;5.75;3.80;;;22.50;99.90;;;;;;1038972;28;20065;-71
2022/09/04 00:38:02;;;;;;;5.88;4.25;;;22.50;99.90;;;;;;1042972;28;20060;-71
2022/09/04 00:38:39;;;;;;;5.05;4.55;;;22.50;99.90;;;;;;1042737;28;20111;-71
2022/09/04 00:39:17;;;;;;;7.10;4.43;;;22.50;99.90;;;;;;1041084;28;20060;-70
2022/09/04 00:40:04;;;;;;;4.28;3.63;;;22.50;99.90;;;;;;1042609;28;20033;-70
2022/09/04 00:40:40;;;;;;;;;;;22.50;99.90;;;;;;1043019;28;20737;-71
2022/09/04 00:41:29;;;;;;;8.75;4.45;;;22.50;99.90;;;;;;1039257;28;19909;-70
2022/09/04 00:42:21;;;;;;;4.75;4.25;;;22.50;99.90;;;;;;1038685;28;20033;-71
2022/09/04 00:43:31;;;;;;;6.35;3.95;;;22.50;99.90;;;;;;1038675;28;20034;-70
2022/09/04 00:44:23;;;;;;;5.72;4.07;;;22.50;99.90;;;;;;1039006;28;20114;-70
2022/09/04 00:45:03;;;;;;;6.68;4.32;;;22.50;99.90;;;;;;1038241;28;20025;-70
2022/09/04 00:46:21;;;;;;;5.88;4.18;;;22.50;99.90;;;;;;1038363;28;20029;-70
2022/09/04 00:47:13;;;;;;;4.50;4.10;;;22.50;99.90;;;;;;1038216;28;20415;-71
2022/09/04 00:47:57;;;;;;;4.80;4.05;;;22.50;99.90;;;;;;1041161;28;20025;-69
2022/09/04 00:48:42;;;;;;;5.03;3.67;;;22.50;99.90;;;;;;1042576;28;20116;-70
2022/09/04 00:49:40;;;;;;;5.30;3.90;;;22.50;99.90;;;;;;1042902;28;20084;-71
2022/09/04 00:50:27;;;;;;;4.75;4.25;;;22.50;99.90;;;;;;1038408;28;20048;-70
2022/09/04 00:51:15;;;;;;;5.35;4.28;;;22.50;99.90;;;;;;1040035;28;20255;-70
2022/09/04 00:52:23;;;;;;;5.30;4.47;;;22.50;99.90;;;;;;1042486;28;20025;-71
2022/09/04 00:53:02;;;;;;;4.35;3.92;;;22.50;99.90;;;;;;1042162;28;20029;-70
2022/09/04 00:53:57;;;;;;;4.35;3.95;;;22.50;99.90;;;;;;1042411;28;20021;-70
2022/09/04 00:54:50;;;;;;;5.18;4.38;;;22.40;99.90;;;;;;1042197;28;20476;-70
2022/09/04 00:55:24;;;;;;;4.95;4.45;;;22.40;99.90;;;;;;1042467;28;20028;-71
2022/09/04 00:56:03;;;;;;;4.03;3.60;;;22.40;99.90;;;;;;1042347;28;20032;-71
2022/09/04 00:57:12;;;;;;;5.13;3.90;;;22.40;99.90;;;;;;1042829;28;20021;-71
2022/09/04 00:57:49;;;;;;;4.43;4.03;;;22.40;99.90;;;;;;1042751;28;20039;-71
2022/09/04 00:58:40;;;;;;;4.22;3.75;;;22.40;99.90;;;;;;1042868;28;20025;-70
2022/09/04 00:59:21;;;;;;;4.57;4.05;;;22.40;99.90;;;;;;1042908;28;20482;-70
2022/09/04 01:00:07;;;;;;;5.68;4.32;;;22.40;99.90;;;;;;1043181;28;20017;-70
2022/09/04 01:00:38;;;;;;;4.57;4.18;;;22.40;99.90;;;;;;1043023;28;20024;-69
2022/09/04 01:01:15;;;;;;;5.03;3.90;;;22.40;99.90;;;;;;1042702;28;20109;-69
2022/09/04 01:01:46;;;;;;;5.07;4.03;;;22.40;99.90;;;;;;1042505;28;20427;-69
2022/09/04 01:02:30;;;;;;;5.47;4.28;;;22.40;99.90;;;;;;1042648;28;20155;-70
2022/09/04 01:03:06;;;;;;;4.38;3.97;;;22.40;99.90;;;;;;1042640;28;20017;-70
2022/09/04 01:03:55;;;;;;;5.55;4.25;;;22.40;99.90;;;;;;1038395;28;20018;-70
2022/09/04 01:04:35;;;;;;;5.75;4.25;;;22.40;99.90;;;;;;1042594;28;20063;-71
2022/09/04 01:05:44;;;;;;;4.50;4.10;;;22.30;99.90;;;;;;1042471;28;20364;-70
2022/09/04 01:06:19;;;;;;;9.85;4.20;;;22.30;99.90;;;;;;1042531;28;20025;-70
2022/09/04 01:07:30;;;;;;;4.93;4.10;;;22.30;99.90;;;;;;1038248;28;20733;-72
2022/09/04 01:08:10;;;;;;;6.00;4.20;;;22.30;99.90;;;;;;1037715;28;20021;-71
2022/09/04 01:08:43;;;;;;;5.93;4.55;;;22.30;99.90;;;;;;1038776;28;20035;-70
2022/09/04 01:09:36;;;;;;;5.75;4.32;;;22.30;99.90;;;;;;1038575;28;20070;-71
2022/09/04 01:10:07;;;;;;;6.00;4.65;;;22.30;99.90;;;;;;1038525;28;20017;-71
2022/09/04 01:10:49;;;;;;;4.53;4.13;;;22.30;99.90;;;;;;1038627;28;20026;-71
2022/09/04 01:11:48;;;;;;;5.43;4.07;;;22.30;99.90;;;;;;1040247;28;20045;-71
2022/09/04 01:12:39;;;;;;;5.10;4.57;;;22.30;99.90;;;;;;1042986;28;20024;-70
2022/09/04 01:13:37;;;;;;;5.88;4.18;;;22.30;99.90;;;;;;1042797;28;20049;-70
2022/09/04 01:14:16;;;;;;;4.28;3.88;;;22.30;99.90;;;;;;1036289;28;20034;-70
2022/09/04 01:14:59;;;;;;;4.43;3.90;;;22.30;99.90;;;;;;1042388;28;20013;-69
2022/09/04 01:16:10;;;;;;;5.43;3.95;;;22.30;99.90;;;;;;1042684;28;20139;-70
2022/09/04 01:17:31;;;;;;;6.88;4.22;;;22.30;99.90;;;;;;1032642;28;20018;-70
2022/09/04 01:18:06;;;;;;;5.93;4.57;;;22.20;99.90;;;;;;1034122;28;20030;-70
2022/09/04 01:18:57;;;;;;;4.70;4.25;;;22.20;99.90;;;;;;1035430;28;20022;-69
2022/09/04 01:19:52;;;;;;;5.38;4.50;;;22.20;99.90;;;;;;1038674;28;20044;-70
2022/09/04 01:20:46;;;;;;;5.75;4.43;;;22.20;99.90;;;;;;1040348;28;20025;-70
2022/09/04 01:21:32;;;;;;;6.07;4.30;;;22.20;99.90;;;;;;1029922;28;20116;-70
2022/09/04 01:22:20;;;;;;;4.47;3.72;;;22.20;99.90;;;;;;1035466;28;20044;-70
2022/09/04 01:23:19;;;;;;;4.78;4.10;;;22.30;99.90;;;;;;1042590;28;20032;-69
2022/09/04 01:23:59;;;;;;;4.90;3.83;;;22.20;99.90;;;;;;1044472;28;20013;-70
2022/09/04 01:24:52;;;;;;;6.03;4.28;;;22.20;99.90;;;;;;1042317;28;20124;-69
2022/09/04 01:26:03;;;;;;;4.63;4.18;;;22.20;99.90;;;;;;1042496;28;20777;-70
2022/09/04 01:26:48;;;;;;;4.90;4.28;;;22.20;99.90;;;;;;1042571;28;20013;-70
2022/09/04 01:27:26;;;;;;;5.45;4.30;;;22.20;99.90;;;;;;1042319;28;20800;-69
2022/09/04 01:28:30;;;;;;;5.15;4.65;;;22.20;99.90;;;;;;1042444;28;20032;-69
2022/09/04 01:29:12;;;;;;;5.70;4.63;;;22.20;99.90;;;;;;1028000;28;20084;-69
2022/09/04 01:29:57;;;;;;;6.32;4.15;;;22.20;99.90;;;;;;1039123;28;20029;-68
2022/09/04 01:30:33;;;;;;;5.85;4.13;;;22.20;99.90;;;;;;1042466;28;20021;-70
2022/09/04 01:31:35;;;;;;;4.88;4.00;;;22.20;99.90;;;;;;1042350;28;20060;-70
2022/09/04 01:32:50;;;;;;;5.75;4.55;;;22.20;99.90;;;;;;1038078;28;20036;-68
2022/09/04 01:33:30;;;;;;;4.80;4.30;;;22.20;99.90;;;;;;1038721;28;20033;-71
2022/09/04 01:34:24;;;;;;;5.57;4.60;;;22.20;99.90;;;;;;1041420;28;20080;-70
2022/09/04 01:35:22;;;;;;;5.05;4.55;;;22.20;99.90;;;;;;1042223;28;20017;-71
2022/09/04 01:36:08;;;;;;;4.65;3.85;;;22.10;99.90;;;;;;1046162;28;20028;-71
2022/09/04 01:36:54;;;;;;;7.32;4.80;;;22.10;99.90;;;;;;1043436;28;20150;-70
2022/09/04 01:37:28;;;;;;;6.60;4.75;;;22.10;99.90;;;;;;1040606;28;20018;-71
2022/09/04 01:38:31;;;;;;;5.72;4.93;;;22.10;99.90;;;;;;1042704;28;20028;-70
2022/09/04 01:39:03;;;;;;;5.47;4.95;;;22.10;99.90;;;;;;1042909;28;20888;-70
2022/09/04 01:39:36;;;;;;;4.20;3.80;;;22.10;99.90;;;;;;1042891;28;20028;-71
2022/09/04 01:40:25;;;;;;;4.40;4.00;;;22.10;99.90;;;;;;1042475;28;20052;-70
2022/09/04 01:41:00;;;;;;;4.50;4.10;;;22.10;99.90;;;;;;1043403;28;20044;-71
2022/09/04 01:41:43;;;;;;;4.68;4.28;;;22.10;99.90;;;;;;1043093;28;20020;-71
2022/09/04 01:42:26;;;;;;;5.32;3.92;;;22.10;99.90;;;;;;1043320;28;20021;-70
2022/09/04 01:43:17;;;;;;;4.90;4.20;;;22.10;99.90;;;;;;1043503;28;20017;-71
2022/09/04 01:43:48;;;;;;;5.90;5.00;;;22.10;99.90;;;;;;1043257;28;20009;-70
2022/09/04 01:44:19;;;;;;;4.85;4.20;;;22.10;99.90;;;;;;1041839;28;20017;-70
2022/09/04 01:44:49;;;;;;;4.37;3.97;;;22.10;99.90;;;;;;1041588;28;20009;-70
2022/09/04 01:45:46;;;;;;;6.13;3.90;;;22.10;99.90;;;;;;1039218;28;20472;-71
2022/09/04 01:46:43;;;;;;;5.03;4.57;;;22.00;99.90;;;;;;1039405;28;20013;-70
2022/09/04 01:47:45;;;;;;;4.45;3.80;;;22.10;99.90;;;;;;1039354;28;20024;-70
2022/09/04 01:48:26;;;;;;;5.53;4.15;;;22.00;99.90;;;;;;1039794;28;20021;-71
2022/09/04 01:49:12;;;;;;;6.18;4.30;;;22.00;99.90;;;;;;1039486;28;20464;-70
2022/09/04 01:49:58;;;;;;;6.03;4.13;;;22.00;99.90;;;;;;1042706;28;20097;-70
2022/09/04 01:50:31;;;;;;;6.13;4.28;;;22.00;99.90;;;;;;1043532;28;20502;-70
2022/09/04 01:51:11;;;;;;;4.20;3.80;;;22.00;99.90;;;;;;1043059;28;20079;-71
2022/09/04 01:51:59;;;;;;;5.60;4.32;;;22.00;99.90;;;;;;1039127;28;20109;-70
2022/09/04 01:52:53;;;;;;;;;;;22.00;99.90;;;;;;1039916;28;20017;-69
2022/09/04 01:53:25;;;;;;;4.88;4.38;;;22.00;99.90;;;;;;1039558;28;20026;-70
2022/09/04 01:54:10;;;;;;;5.00;4.50;;;22.00;99.90;;;;;;1039668;28;20031;-70
2022/09/04 01:55:15;;;;;;;5.10;4.60;;;22.00;99.90;;;;;;1039703;28;20633;-69
2022/09/04 01:56:07;;;;;;;5.05;4.55;;;22.00;99.90;;;;;;1039618;28;20685;-71
2022/09/04 01:56:47;;;;;;;5.13;4.40;;;22.00;99.90;;;;;;1039800;28;20392;-70
2022/09/04 01:57:36;;;;;;;5.40;4.47;;;22.00;99.90;;;;;;1039386;28;20063;-70
2022/09/04 01:58:20;;;;;;;6.75;4.88;;;22.00;99.90;;;;;;1039466;28;20013;-70
2022/09/04 01:59:02;;;;;;;5.75;4.35;;;22.00;99.90;;;;;;1039337;28;20068;-70
2022/09/04 02:00:02;;;;;;;4.82;4.22;;;22.00;99.90;;;;;;1041525;28;20528;-70
2022/09/04 02:01:14;;;;;;;5.75;4.90;;;22.00;99.90;;;;;;1043462;28;20021;-70
2022/09/04 02:01:55;;;;;;;5.68;4.25;;;22.00;99.90;;;;;;1043158;28;20048;-70
2022/09/04 02:02:52;;;;;;;4.65;4.25;;;22.00;99.90;;;;;;1043208;28;20036;-70
2022/09/04 02:03:42;;;;;;;4.78;4.32;;;22.00;99.90;;;;;;1039054;28;20782;-70
2022/09/04 02:04:30;;;;;;;5.85;4.38;;;22.00;99.90;;;;;;1035163;28;20076;-70
2022/09/04 02:05:37;;;;;;;5.68;4.75;;;22.00;99.90;;;;;;1037648;28;20092;-70
2022/09/04 02:06:17;;;;;;;4.82;4.05;;;22.00;99.90;;;;;;1033823;28;20037;-70
2022/09/04 02:07:24;;;;;;;4.38;3.70;;;22.00;99.90;;;;;;1038347;28;20142;-70
2022/09/04 02:08:20;;;;;;;5.15;4.65;;;22.00;99.90;;;;;;1043185;28;20025;-71
2022/09/04 02:09:09;;;;;;;4.70;4.15;;;22.00;99.90;;;;;;1043554;28;20066;-70
2022/09/04 02:09:49;;;;;;;5.60;4.40;;;22.00;99.90;;;;;;1043015;28;20031;-69
2022/09/04 02:10:40;;;;;;;5.15;4.13;;;22.00;99.90;;;;;;1043469;28;20588;-69
2022/09/04 02:11:26;;;;;;;5.30;4.47;;;21.90;99.90;;;;;;1043359;28;20472;-71
2022/09/04 02:12:09;;;;;;;4.85;4.43;;;21.90;99.90;;;;;;1043675;28;20192;-70
2022/09/04 02:12:52;;;;;;;4.45;4.05;;;21.90;99.90;;;;;;1043306;28;20020;-69
2022/09/04 02:13:39;;;;;;;4.75;4.28;;;21.90;99.90;;;;;;1043332;28;20579;-70
2022/09/04 02:14:26;;;;;;;4.57;3.78;;;21.90;99.90;;;;;;1043310;28;20102;-69
2022/09/04 02:15:08;;;;;;;5.30;4.25;;;21.90;99.90;;;;;;1042907;28;20056;-71
2022/09/04 02:15:57;;;;;;;4.40;4.00;;;21.90;99.90;;;;;;1043155;28;20464;-70
2022/09/04 02:17:17;;;;;;;5.00;4.50;;;21.90;99.90;;;;;;1043057;28;20021;-70
2022/09/04 02:18:05;;;;;;;5.70;4.57;;;21.90;99.90;;;;;;1043151;28;20032;-70
2022/09/04 02:19:13;;;;;;;5.10;4.05;;;21.90;99.90;;;;;;1043372;28;20100;-69
2022/09/04 02:20:01;;;;;;;4.30;3.83;;;21.90;99.90;;;;;;1043409;28;20017;-69
2022/09/04 02:20:32;;;;;;;4.50;3.70;;;21.90;99.90;;;;;;1043453;28;20029;-70
2022/09/04 02:21:31;;;;;;;4.37;3.97;;;21.90;99.90;;;;;;1043606;28;20441;-71
2022/09/04 02:22:27;;;;;;;5.10;4.05;;;21.90;99.90;;;;;;1038975;28;20017;-70
2022/09/04 02:23:10;;;;;;;5.95;3.97;;;21.90;99.90;;;;;;1035174;28;20033;-70
2022/09/04 02:23:56;;;;;;;4.53;4.10;;;21.90;99.90;;;;;;1035836;28;20034;-71
2022/09/04 02:24:49;;;;;;;4.20;3.80;;;21.90;99.90;;;;;;1038924;28;20017;-69
2022/09/04 02:25:53;;;;;;;4.28;3.88;;;21.90;99.90;;;;;;1035949;28;20018;-71
2022/09/04 02:26:46;;;;;;;4.15;3.75;;;21.90;99.90;;;;;;1023712;28;20681;-69
2022/09/04 02:27:41;;;;;;;4.85;3.97;;;21.90;99.90;;;;;;1038467;28;20091;-70
2022/09/04 02:28:51;;;;;;;4.97;4.47;;;21.90;99.90;;;;;;1039604;28;20029;-70
2022/09/04 02:29:43;;;;;;;5.72;3.65;;;21.90;99.90;;;;;;1043760;28;20020;-70
2022/09/04 02:30:17;;;;;;;4.55;3.95;;;21.90;99.90;;;;;;1043603;28;20021;-69
2022/09/04 02:30:59;;;;;;;5.30;4.47;;;21.90;99.90;;;;;;1043342;28;20041;-71
2022/09/04 02:31:43;;;;;;;4.63;4.15;;;21.90;99.90;;;;;;1043695;28;20094;-70
2022/09/04 02:32:19;;;;;;;4.47;4.07;;;21.90;99.90;;;;;;1040936;28;20072;-70
2022/09/04 02:33:14;;;;;;;4.88;3.75;;;21.90;99.90;;;;;;1041842;28;20112;-70
2022/09/04 02:33:55;;;;;;;4.40;4.00;;;21.90;99.90;;;;;;1039055;28;20148;-69
2022/09/04 02:34:41;;;;;;;4.85;4.35;;;21.90;99.90;;;;;;1039123;28;20028;-70
2022/09/04 02:35:36;;;;;;;4.97;4.38;;;21.90;99.90;;;;;;1042259;28;20025;-69
2022/09/04 02:36:20;;;;;;;5.18;4.68;;;21.90;99.90;;;;;;1042944;28;20166;-70
2022/09/04 02:37:10;;;;;;;4.82;4.18;;;21.90;99.90;;;;;;1043184;28;20032;-70
2022/09/04 02:38:07;;;;;;;4.85;4.05;;;21.90;99.90;;;;;;1043230;28;20103;-70
2022/09/04 02:38:50;;;;;;;4.60;4.15;;;21.90;99.90;;;;;;1032702;28;20026;-70
2022/09/04 02:39:42;;;;;;;4.72;4.22;;;21.90;99.90;;;;;;1036297;28;20103;-72
2022/09/04 02:40:28;;;;;;;4.70;4.30;;;21.90;99.90;;;;;;1043631;28;20118;-71
2022/09/04 02:41:20;;;;;;;5.60;4.72;;;21.90;99.90;;;;;;1043157;28;20507;-70
2022/09/04 02:41:57;;;;;;;6.35;4.70;;;21.90;99.90;;;;;;1042884;28;20025;-69
2022/09/04 02:42:38;;;;;;;6.35;4.22;;;21.80;99.90;;;;;;1042946;28;20017;-70
2022/09/04 02:43:27;;;;;;;5.82;4.95;;;21.80;99.90;;;;;;1041456;28;20096;-70
2022/09/04 02:44:18;;;;;;;5.53;4.38;;;21.80;99.90;;;;;;1043587;28;20009;-69
2022/09/04 02:45:13;;;;;;;4.60;4.20;;;21.80;99.90;;;;;;1043293;28;20168;-70
2022/09/04 02:45:51;;;;;;;5.63;4.53;;;21.80;99.90;;;;;;1042780;28;20017;-70
2022/09/04 02:46:48;;;;;;;4.93;4.43;;;21.80;99.90;;;;;;1043727;28;20156;-71
2022/09/04 02:47:30;;;;;;;5.32;3.90;;;21.80;99.90;;;;;;1043595;28;20024;-70
2022/09/04 02:48:43;;;;;;;5.10;4.40;;;21.80;99.90;;;;;;1043540;28;20374;-69
2022/09/04 02:49:31;;;;;;;4.60;4.10;;;21.80;99.90;;;;;;1034484;28;20018;-70
2022/09/04 02:50:28;;;;;;;3.95;3.58;;;21.80;99.90;;;;;;1045514;28;20076;-71
2022/09/04 02:51:34;;;;;;;5.28;4.35;;;21.80;99.90;;;;;;1046886;28;20032;-71
2022/09/04 02:52:17;;;;;;;4.55;3.80;;;21.80;99.90;;;;;;1039164;28;20049;-71
2022/09/04 02:53:19;;;;;;;8.55;4.70;;;21.80;99.90;;;;;;1039046;28;20028;-71
2022/09/04 02:53:56;;;;;;;5.85;5.07;;;21.80;99.90;;;;;;1039138;28;20020;-71
2022/09/04 02:54:42;;;;;;;4.72;4.28;;;21.80;99.90;;;;;;1038935;28;20017;-71
2022/09/04 02:55:46;;;;;;;5.82;4.45;;;21.80;99.90;;;;;;1041960;28;20761;-71
2022/09/04 02:56:40;;;;;;;5.82;4.03;;;21.80;99.90;;;;;;1043431;28;20025;-71
2022/09/04 02:57:49;;;;;;;4.47;3.65;;;21.80;99.90;;;;;;1042858;28;20013;-70
2022/09/04 02:58:41;;;;;;;5.60;4.20;;;21.70;99.90;;;;;;1043465;28;20475;-71
2022/09/04 02:59:23;;;;;;;5.45;4.40;;;21.80;99.90;;;;;;1043494;28;20013;-71
2022/09/04 03:00:16;;;;;;;4.63;4.22;;;21.80;99.90;;;;;;1043532;28;20025;-70
2022/09/04 03:01:24;;;;;;;4.60;4.18;;;21.80;99.90;;;;;;1043276;28;20013;-70
2022/09/04 03:02:01;;;;;;;5.90;4.20;;;21.80;99.90;;;;;;1043392;28;20078;-70
2022/09/04 03:02:44;;;;;;;4.75;4.25;;;21.80;99.90;;;;;;1042926;28;20748;-70
2022/09/04 03:03:20;;;;;;;6.63;4.20;;;21.80;99.90;;;;;;1042829;28;20075;-70
2022/09/04 03:04:11;;;;;;;5.03;4.25;;;21.70;99.90;;;;;;1042972;28;20063;-70
2022/09/04 03:04:54;;;;;;;6.07;4.50;;;21.70;99.90;;;;;;1042265;28;20119;-71
2022/09/04 03:05:57;;;;;;;4.90;4.43;;;21.70;99.90;;;;;;1043026;28;20110;-70
2022/09/04 03:06:41;;;;;;;4.75;4.35;;;21.70;99.90;;;;;;1035251;28;20460;-71
2022/09/04 03:07:34;;;;;;;8.98;4.70;;;21.70;99.90;;;;;;1042642;28;20107;-70
2022/09/04 03:08:16;;;;;;;6.13;4.70;;;21.70;99.90;;;;;;1043253;28;20161;-70
2022/09/04 03:09:05;;;;;;;5.25;4.40;;;21.70;99.90;;;;;;1042777;28;20485;-70
2022/09/04 03:09:47;;;;;;;5.95;4.30;;;21.70;99.90;;;;;;1043375;28;20032;-70
2022/09/04 03:10:23;;;;;;;5.35;4.13;;;21.70;99.90;;;;;;1043409;28;20044;-68
2022/09/04 03:11:09;;;;;;;4.63;4.18;;;21.70;99.90;;;;;;1043246;28;20074;-69
2022/09/04 03:11:47;;;;;;;7.00;4.95;;;21.70;99.90;;;;;;1042832;28;20025;-69
2022/09/04 03:12:48;;;;;;;5.20;4.05;;;21.70;99.90;;;;;;1043129;28;20017;-70
2022/09/04 03:13:41;;;;;;;6.00;4.75;;;21.70;99.90;;;;;;1039099;28;20045;-70
2022/09/04 03:14:25;;;;;;;5.72;4.85;;;21.70;99.90;;;;;;1039430;28;20013;-70
2022/09/04 03:15:08;;;;;;;5.95;4.80;;;21.70;99.90;;;;;;1039862;28;20025;-70
2022/09/04 03:16:01;;;;;;;4.97;4.47;;;21.70;99.90;;;;;;1038873;28;20018;-70
2022/09/04 03:16:50;;;;;;;5.18;4.35;;;21.70;99.90;;;;;;1038831;28;20473;-69
2022/09/04 03:17:32;;;;;;;6.22;4.65;;;21.70;99.90;;;;;;1041314;28;20014;-70
2022/09/04 03:18:24;;;;;;;6.57;4.32;;;21.70;99.90;;;;;;1042744;28;20869;-70
2022/09/04 03:19:18;;;;;;;4.68;4.22;;;21.70;99.90;;;;;;1042965;28;20043;-71
2022/09/04 03:19:59;;;;;;;6.22;4.30;;;21.70;99.90;;;;;;1043057;28;20574;-70
2022/09/04 03:20:35;;;;;;;4.25;3.88;;;21.70;99.90;;;;;;1042356;28;20832;-70
2022/09/04 03:21:11;;;;;;;4.65;4.25;;;21.70;99.90;;;;;;1041172;28;20021;-70
2022/09/04 03:22:00;;;;;;;6.30;4.05;;;21.70;99.90;;;;;;1043017;28;20021;-70
2022/09/04 03:23:11;;;;;;;7.65;5.05;;;21.70;99.90;;;;;;1042664;28;20114;-70
2022/09/04 03:23:57;;;;;;;4.93;4.10;;;21.70;99.90;;;;;;1026239;28;20030;-71
2022/09/04 03:24:59;;;;;;;5.22;4.20;;;21.70;99.90;;;;;;1028939;28;20046;-71
2022/09/04 03:25:56;;;;;;;4.97;4.47;;;21.70;99.90;;;;;;1040706;28;20876;-70
2022/09/04 03:26:35;;;;;;;4.95;4.35;;;21.70;99.90;;;;;;1034678;28;20116;-69
2022/09/04 03:27:12;;;;;;;4.85;4.35;;;21.70;99.90;;;;;;1035680;28;20029;-70
2022/09/04 03:27:43;;;;;;;4.70;4.25;;;21.70;99.90;;;;;;1038538;28;20040;-71
2022/09/04 03:28:42;;;;;;;5.37;4.30;;;21.70;99.90;;;;;;1039030;28;20112;-70
2022/09/04 03:29:13;;;;;;;5.20;4.70;;;21.70;99.90;;;;;;1038866;28;20087;-71
2022/09/04 03:29:51;;;;;;;4.20;3.80;;;21.70;99.90;;;;;;1038560;28;20816;-71
2022/09/04 03:30:22;;;;;;;5.53;4.30;;;21.70;99.90;;;;;;1043250;28;20032;-70
2022/09/04 03:30:55;;;;;;;5.87;4.30;;;21.70;99.90;;;;;;1043973;28;20067;-71
2022/09/04 03:31:39;;;;;;;4.80;4.30;;;21.70;99.90;;;;;;1045739;28;20012;-71
2022/09/04 03:32:39;;;;;;;4.78;4.38;;;21.70;99.90;;;;;;1043509;28;20017;-72
2022/09/04 03:33:44;;;;;;;6.07;4.57;;;21.70;99.90;;;;;;1034236;28;20026;-71
2022/09/04 03:34:35;;;;;;;4.82;4.28;;;21.60;99.90;;;;;;1040210;28;20025;-71
2022/09/04 03:35:30;;;;;;;5.40;4.60;;;21.60;99.90;;;;;;1038750;28;20010;-71
2022/09/04 03:36:27;;;;;;;5.80;4.65;;;21.60;99.90;;;;;;1041048;28;20014;-71
2022/09/04 03:37:23;;;;;;;4.93;4.53;;;21.60;99.90;;;;;;1039011;28;20012;-71
2022/09/04 03:38:27;;;;;;;5.05;4.55;;;21.60;99.90;;;;;;1042996;28;20016;-71
2022/09/04 03:39:20;;;;;;;6.50;4.57;;;21.60;99.90;;;;;;1043269;28;20013;-69
2022/09/04 03:40:23;;;;;;;4.88;4.38;;;21.60;99.90;;;;;;1039335;28;20520;-70
2022/09/04 03:41:06;;;;;;;4.72;4.32;;;21.60;99.90;;;;;;1039349;28;20010;-70
2022/09/04 03:41:48;;;;;;;5.10;4.28;;;21.60;99.90;;;;;;1042666;28;20016;-72
2022/09/04 03:42:32;;;;;;;5.18;4.68;;;21.60;99.90;;;;;;1034462;28;20018;-71
2022/09/04 03:43:22;;;;;;;6.20;5.53;;;21.60;99.90;;;;;;1038028;28;20013;-72
2022/09/04 03:44:21;;;;;;;5.43;3.92;;;21.60;99.90;;;;;;1039326;28;20132;-72
2022/09/04 03:45:14;;;;;;;5.70;5.20;;;21.60;99.90;;;;;;1041096;28;20021;-71
2022/09/04 03:46:14;;;;;;;5.18;4.35;;;21.60;99.90;;;;;;1042711;28;20017;-71
2022/09/04 03:47:09;;;;;;;5.45;4.95;;;21.60;99.90;;;;;;1042726;28;20017;-71
2022/09/04 03:47:53;;;;;;;5.47;4.97;;;21.60;99.90;;;;;;1042824;28;20005;-71
2022/09/04 03:48:43;;;;;;;5.38;4.88;;;21.60;99.90;;;;;;1038732;28;20639;-70
2022/09/04 03:49:45;;;;;;;5.80;5.20;;;21.60;99.90;;;;;;1039110;28;20707;-71
2022/09/04 03:50:55;;;;;;;5.25;4.75;;;21.50;99.90;;;;;;1039435;28;20001;-71
2022/09/04 03:51:49;;;;;;;5.47;4.97;;;21.60;99.90;;;;;;1039824;28;20404;-71
2022/09/04 03:52:54;;;;;;;5.93;5.35;;;21.50;99.90;;;;;;1034868;28;20018;-70
2022/09/04 03:53:50;;;;;;;5.03;4.43;;;21.50;99.90;;;;;;1038343;28;20460;-71
2022/09/04 03:55:07;;;;;;;5.88;5.28;;;21.60;99.90;;;;;;1043039;28;20021;-70
2022/09/04 03:55:55;;;;;;;3.85;3.53;;;21.60;99.90;;;;;;1043014;28;20032;-70
2022/09/04 03:56:38;;;;;;;4.90;4.43;;;21.60;99.90;;;;;;1040690;28;20013;-71
2022/09/04 03:57:18;;;;;;;5.28;4.78;;;21.60;99.90;;;;;;1043278;28;20124;-70
2022/09/04 03:57:53;;;;;;;5.05;4.55;;;21.60;99.90;;;;;;1042936;28;20009;-71
2022/09/04 03:58:36;;;;;;;7.68;5.10;;;21.60;99.90;;;;;;1038640;28;20010;-70
2022/09/04 03:59:27;;;;;;;5.07;4.57;;;21.60;99.90;;;;;;1034555;28;20105;-73
2022/09/04 04:00:04;;;;;;;5.55;4.80;;;21.60;99.90;;;;;;1035019;28;20445;-71
2022/09/04 04:01:17;;;;;;;5.47;4.97;;;21.60;99.90;;;;;;1034859;28;20072;-71
2022/09/04 04:02:14;;;;;;;5.28;4.78;;;21.60;99.90;;;;;;1020783;29;20031;-71
2022/09/04 04:03:09;;;;;;;5.65;4.60;;;21.60;99.90;;;;;;1043021;28;20568;-71
2022/09/04 04:03:58;;;;;;;5.38;4.50;;;21.60;99.90;;;;;;1038761;28;20026;-70
2022/09/04 04:05:25;;;;;;;5.55;5.03;;;21.60;99.90;;;;;;1040743;28;20464;-70
2022/09/04 04:06:12;;;;;;;4.40;3.90;;;21.60;99.90;;;;;;1018618;29;20040;-69
2022/09/04 04:07:18;;;;;;;5.20;4.70;;;21.60;99.90;;;;;;1016301;29;20098;-70
2022/09/04 04:08:07;;;;;;;6.30;5.15;;;21.60;99.90;;;;;;1018282;29;20034;-71
2022/09/04 04:09:02;;;;;;;5.22;4.72;;;21.50;99.90;;;;;;1020220;29;20572;-72
2022/09/04 04:09:54;;;;;;;5.28;4.70;;;21.60;99.90;;;;;;1014698;29;20028;-69
2022/09/04 04:11:06;;;;;;;6.43;5.50;;;21.50;99.90;;;;;;1012642;29;20085;-71
2022/09/04 04:11:49;;;;;;;5.18;4.60;;;21.50;99.90;;;;;;1017960;28;20043;-70
2022/09/04 04:12:39;;;;;;;5.53;4.65;;;21.50;99.90;;;;;;1030753;28;20512;-70
2022/09/04 04:13:22;;;;;;;4.65;4.20;;;21.50;99.90;;;;;;1038876;28;20419;-71
2022/09/04 04:14:36;;;;;;;5.63;5.13;;;21.50;99.90;;;;;;1038612;28;20029;-71
2022/09/04 04:15:44;;;;;;;4.90;4.38;;;21.50;99.90;;;;;;1041300;28;20083;-71